Tindal Airport
YPTN : now visible

Airfield :











YOU CAN JOIN US ON...

 
LOGIN :

Register | Disclaimer

   EN    FR    IT 

 









Legend :    VFR   Marginal VFR   IFR   Intensive IFR   Very Intensive IFR
Visi :
Ceiling :
>= 8 km
>= 3000ft
5 to 8 km
1000 to 3000 ft
1500m to 5 km
500 to 1000 ft
800 to 1500m
200 to 500 ft
< 800m
< 200 ft
Symbols :   Thunderstorms  Fog  Heavy snow  Heavy precipitations  Wind > 20 kt






- Airport Elevation : 443 ft
- IATA code : KTR


YPTN - Tindal

CURRENT METAR :
  • 040800Z AUTO 34007KT 9999 // NCD 37/13 Q1003 RF00.0/000.0

EXPIRED METARs :
  • 040730Z AUTO 35007KT 9999 // NCD 38/12 Q1003 RF00.0/000.0
  • 040700Z AUTO 33007KT 9999 // NCD 38/13 Q1003 RF00.0/000.0
  • 040630Z AUTO 30003KT 9999 // SCT120 38/13 Q1003 RF00.0/000.0
  • 040600Z AUTO 33008KT 270V360 9999 // NCD 38/12 Q1003 RF00.0/000.0
  • 040530Z AUTO 32008KT 280V080 9999 // NCD 38/15 Q1004 RF00.0/000.0
  • 040500Z AUTO 31006KT 270V350 9999 // NCD 38/12 Q1004 RF00.0/000.0

TAF TAF YPTN
Valid from the 04 at 06:00 until the 05 at 06:00 UTC


040528Z 0406/0506 20006KT CAVOK
FM040900 VRB04KT CAVOK
FM041900 33007KT 9999 FEW015
FM050500 20006KT CAVOK
YBBB FIR / Oceania



MET'MAP, your aeronautical weather chart ! - Copyright ORBIFLY December 2007 - Disclaimer

ORBIFLY MET'MAP TEAM :

Programming & Development : Alexandra Zaïnal
Original concept : Baudouin d'Aumeries
Technical & hardware support : Manuel Goepfert
Assistance : Marc-Olivier Méhu




SOURCES & CREDITS :

   NOAA       Earth
Advisory